Date,TemperatureHighF,TemperatureAvgF,TemperatureLowF,DewpointHighF,DewpointAvgF,DewpointLowF,HumidityHigh,HumidityAvg,HumidityLow,PressureMaxIn,PressureMinIn,WindSpeedMaxMPH,WindSpeedAvgMPH,GustSpeedMaxMPH,PrecipitationSumIn
2012-1-13,-200,0,200,-100,-100,-100,0,0,100,0.00,0.00,0,-999,0,0.00
2012-1-14,-200,0,200,-100,-100,-100,0,0,100,0.00,0.00,0,-999,0,0.00
2012-1-15,77,14,76,69,-70,-100,78,13,71,0.00,0.00,16,-820,24,0.00
2012-1-16,78,76,75,70,68,67,82,77,70,0.00,0.00,15,7,22,0.00
2012-1-18,79,66,67,69,54,-100,92,79,69,0.00,0.00,9,-70,12,0.00
2012-1-19,77,70,65,70,63,-100,95,84,72,0.00,0.00,7,-18,16,0.00
2012-1-20,79,74,77,72,62,-100,81,73,74,0.00,0.00,22,-37,24,0.00
2012-1-21,80,78,78,74,70,-100,85,78,74,0.00,0.00,22,0,24,0.00
2012-1-22,81,79,77,73,72,70,84,79,72,0.00,0.00,27,14,31,0.00
2012-1-23,81,79,75,73,72,71,89,80,74,0.00,0.00,21,11,21,0.14
2012-1-24,82,79,78,73,71,70,82,77,71,0.00,0.00,23,11,23,0.14
2012-1-25,81,80,78,74,72,70,82,78,74,0.00,0.00,24,19,26,0.00
2012-1-26,82,80,78,74,73,71,85,79,74,0.00,0.00,26,16,26,0.00
2012-1-27,83,72,69,74,66,-100,95,87,75,0.00,0.00,9,-25,14,1.48
2012-1-28,82,76,69,75,71,67,96,86,75,0.00,0.00,16,6,17,0.05
2012-1-29,83,74,69,74,70,68,95,87,70,0.00,0.00,13,5,20,0.06
2012-1-30,82,78,73,72,70,68,92,78,68,0.00,0.00,15,7,21,0.06
2012-1-31,82,79,76,73,71,68,84,76,71,0.00,0.00,21,6,23,0.07
2012-2-1,81,77,73,74,70,-100,90,80,76,0.00,0.00,14,-7,24,0.09
2012-2-2,82,79,76,73,72,70,87,78,73,0.00,0.00,24,5,25,0.01
2012-2-3,80,78,73,73,71,68,92,80,72,0.00,0.00,17,6,20,0.04
2012-2-4,80,76,69,73,70,66,96,83,71,0.00,0.00,18,8,22,0.43
2012-2-5,84,73,68,73,69,67,96,88,63,0.00,0.00,12,4,16,0.20
2012-2-6,81,72,67,73,69,66,97,92,72,0.00,0.00,9,3,14,0.10
2012-2-7,83,73,65,73,69,64,97,88,63,0.00,40.00,8,2,10,0.01
2012-2-8,81,73,68,73,70,67,97,90,74,0.00,40.00,5,2,7,0.00
2012-2-9,80,74,69,73,71,68,96,91,75,0.00,0.00,9,3,17,0.19
2012-2-10,83,76,68,75,72,67,97,87,72,0.00,0.00,12,4,14,0.00
2012-2-11,81,74,67,74,69,64,96,86,69,0.00,0.00,16,5,20,0.00
2012-2-12,76,69,63,64,61,59,90,76,56,0.00,0.00,20,6,23,0.00
2012-2-13,76,73,68,65,62,59,78,69,62,0.00,0.00,13,6,17,0.00
2012-2-14,79,77,74,70,68,64,79,74,69,0.00,0.00,20,12,22,0.00
2012-2-15,81,79,77,74,72,70,86,80,77,0.00,0.00,21,14,21,0.00
2012-2-16,81,79,78,74,73,72,85,82,77,0.00,0.00,19,11,21,0.00
2012-2-17,83,79,78,74,72,69,87,79,70,0.00,0.00,17,10,19,0.00
2012-2-18,82,79,77,75,72,68,87,79,73,0.00,0.00,18,14,20,0.00
2012-2-19,83,76,73,76,66,-100,93,80,78,0.00,0.00,13,-42,13,0.00
2012-2-20,85,78,74,76,68,-100,95,77,73,0.00,0.00,13,-27,15,0.00
2012-2-21,84,79,78,76,72,-100,84,79,75,0.00,0.00,15,-6,16,0.00
2012-2-22,82,80,78,74,72,70,85,77,70,0.00,0.00,19,11,20,0.01
2012-2-23,82,79,78,75,71,-100,82,77,73,0.00,0.00,23,6,25,0.00
2012-2-24,83,80,79,75,73,71,85,79,73,0.00,0.00,28,18,29,0.00
2012-2-25,84,80,79,76,74,73,85,81,76,0.00,0.00,22,12,26,0.00
2012-2-26,83,80,78,74,73,71,84,79,71,0.00,0.00,18,12,20,0.00
2012-2-27,83,80,78,75,73,71,84,77,69,0.00,0.00,17,5,17,0.00
2012-2-28,84,80,76,75,73,71,85,79,71,0.00,0.00,10,5,18,0.00
2012-2-29,83,80,78,74,73,71,83,78,72,0.00,0.00,14,5,17,0.00
2012-3-1,82,80,78,75,73,72,83,80,76,0.00,0.00,18,11,21,0.00
2012-3-2,82,80,79,74,73,71,83,78,72,0.00,0.00,26,18,31,0.00
2012-3-3,83,81,79,75,73,71,86,78,72,0.00,0.00,29,19,34,0.00
2012-3-4,79,76,70,76,69,62,94,80,70,0.00,0.00,20,8,25,0.00
2012-3-5,76,71,64,62,61,59,83,70,62,0.00,0.00,21,8,28,0.00
2012-3-6,79,61,65,73,35,-100,85,61,68,0.00,0.00,21,-187,27,0.00
2012-3-7,82,79,77,75,73,71,87,81,77,0.00,0.00,12,7,18,0.00
2012-3-8,83,80,78,74,73,71,85,80,72,0.00,0.00,20,7,22,0.00
2012-3-9,83,80,78,74,73,72,84,78,70,0.00,0.00,19,6,20,0.00
2012-3-10,84,80,73,74,72,68,86,77,68,0.00,0.00,8,3,11,0.00
2012-3-11,83,80,78,74,72,70,82,77,71,0.00,0.00,18,8,23,0.00
2012-3-12,83,80,78,74,71,68,81,76,71,0.00,0.00,17,7,21,0.00
2012-3-13,83,79,76,73,70,69,81,74,66,0.00,0.00,15,5,20,0.00
2012-3-14,82,79,78,73,70,68,81,74,68,0.00,0.00,10,4,17,0.00
2012-3-15,82,78,72,71,68,65,80,71,59,0.00,0.00,11,4,17,0.00
2012-3-16,83,77,66,70,67,63,91,72,60,0.00,0.00,7,3,12,0.00
2012-3-17,82,78,67,72,70,64,93,76,59,0.00,0.00,17,8,21,0.03
2012-3-18,82,80,78,73,71,70,81,76,69,0.00,0.00,15,6,18,0.00
2012-3-19,81,79,78,72,70,68,78,73,68,0.00,0.00,24,13,26,0.00
2012-3-20,81,80,78,73,71,68,81,76,65,0.00,0.00,28,21,30,0.00
2012-3-21,82,80,79,74,72,71,81,77,72,0.00,0.00,27,21,28,0.00
2012-3-22,82,80,79,75,73,72,82,79,76,0.00,0.00,27,16,29,0.00
2012-3-23,83,80,78,74,73,72,84,79,71,0.00,0.00,18,7,20,0.00
2012-3-24,83,80,78,74,72,70,84,77,70,0.00,0.00,17,10,18,0.00
2012-3-25,84,78,68,74,71,66,93,79,69,0.00,0.00,16,7,18,0.00
2012-3-26,82,77,68,73,70,65,91,79,69,0.00,0.00,12,5,15,0.00
2012-3-27,82,77,69,71,68,65,91,75,64,0.00,0.00,11,4,15,0.00
2012-3-28,84,79,69,73,69,63,81,71,62,0.00,0.00,17,7,19,0.00
2012-3-29,82,79,72,73,71,68,88,77,69,0.00,0.00,18,12,20,0.01
2012-3-30,82,80,79,75,73,71,84,78,73,0.00,0.00,22,15,24,0.01
2012-3-31,83,81,79,76,75,73,86,82,76,0.00,0.00,20,15,22,0.00
2012-4-1,83,78,79,76,71,-100,90,82,79,0.00,40.00,19,-16,20,0.34
2012-4-2,83,81,79,77,76,74,86,84,79,0.00,0.00,22,16,24,0.00
2012-4-3,82,81,80,77,76,75,88,85,81,0.00,0.00,30,17,32,0.00
2012-4-4,83,81,80,77,76,75,87,84,80,0.00,0.00,27,16,28,0.00
2012-4-5,84,81,80,78,76,75,87,83,76,0.00,0.00,21,13,24,0.00
2012-4-6,84,80,80,77,74,-100,90,84,76,0.00,0.00,16,-4,19,0.00
2012-4-7,84,81,75,77,76,72,91,83,77,0.00,0.00,14,7,17,0.00
2012-4-8,83,78,71,74,71,66,94,80,70,0.00,0.00,13,4,17,0.00
2012-4-9,84,77,66,74,70,64,91,79,67,0.00,0.00,13,5,13,0.00
2012-4-10,84,80,74,73,72,69,86,76,68,0.00,0.00,10,4,15,0.00
2012-4-12,84,78,79,72,62,-100,75,64,61,0.00,0.00,11,-47,16,0.00
2012-4-13,84,80,73,74,71,67,83,74,66,0.00,0.00,15,5,18,0.00
2012-4-14,83,81,79,73,72,71,80,74,67,0.00,0.00,20,9,24,0.00
2012-4-15,83,81,80,75,72,69,82,76,68,0.00,0.00,24,15,25,0.00
2012-4-16,83,80,73,75,74,71,96,82,74,0.00,0.00,31,12,40,0.40
2012-4-17,83,80,75,77,75,73,95,85,79,0.00,0.00,28,11,32,0.71
2012-4-18,83,79,74,76,74,72,94,84,75,0.00,0.00,19,8,20,0.86
2012-4-19,84,76,70,76,72,69,96,86,72,0.00,0.00,27,6,28,0.36
2012-4-20,83,81,79,76,75,74,87,83,76,0.00,0.00,19,12,28,0.17
2012-4-21,93,82,72,77,71,61,92,72,40,0.00,0.00,19,10,23,0.04
2012-4-22,85,74,64,67,63,59,89,70,50,0.00,0.00,17,6,24,0.00
2012-4-23,85,71,62,65,60,49,93,70,30,0.00,0.00,13,5,20,0.00
2012-4-24,83,73,63,64,61,59,92,69,48,0.00,0.00,16,5,20,0.00
2012-4-25,81,73,62,67,63,58,86,70,53,0.00,0.00,10,4,16,0.00
2012-4-26,82,79,76,70,66,62,73,64,57,0.00,0.00,15,4,17,0.00
2012-4-27,83,80,73,74,70,65,83,71,57,0.00,0.00,16,4,19,0.00
2012-4-28,84,81,79,76,74,72,84,79,76,0.00,0.00,21,12,25,0.00
2012-4-29,85,81,79,75,74,72,84,77,71,0.00,0.00,18,6,20,0.00
2012-4-30,85,81,74,75,74,71,90,79,70,0.00,0.00,8,4,14,0.00
2012-5-1,85,80,71,76,74,69,94,82,73,0.00,0.00,19,8,19,0.00
2012-5-2,85,82,80,77,76,74,85,81,75,0.00,0.00,20,10,20,0.00
2012-5-3,85,82,80,78,76,73,86,82,76,0.00,0.00,17,10,18,0.00
2012-5-4,86,82,81,78,76,75,86,81,74,0.00,0.00,17,7,19,0.00
2012-5-5,86,82,80,77,75,74,84,80,73,0.00,0.00,14,6,18,0.00
2012-5-6,87,82,80,77,73,-100,83,77,70,0.00,0.00,15,-4,16,0.00
2012-5-7,86,82,80,76,75,74,84,79,70,0.00,0.00,18,11,18,0.00
2012-5-8,84,82,81,77,76,75,85,81,76,0.00,0.00,18,12,20,0.00
2012-5-9,85,83,81,77,76,75,84,80,73,0.00,0.00,18,13,19,0.00
2012-5-10,87,83,81,78,76,75,84,79,72,0.00,0.00,17,10,17,0.00
2012-5-11,85,82,81,77,75,74,83,79,74,0.00,0.00,20,14,22,0.00
2012-5-12,85,83,81,78,76,75,85,81,77,0.00,0.00,15,8,18,0.00
2012-5-13,87,83,81,78,77,76,85,81,74,0.00,0.00,14,4,15,0.00
2012-5-14,87,83,80,77,76,72,85,79,69,0.00,0.00,13,4,18,0.00
2012-5-15,84,78,71,77,74,69,96,87,78,0.00,0.00,24,7,25,1.78
2012-5-16,85,80,76,76,74,70,93,83,72,0.00,0.00,22,7,22,0.00
2012-5-17,84,79,75,75,73,71,94,82,68,0.00,0.00,27,10,31,0.22
2012-5-18,84,78,74,76,74,71,95,86,77,0.00,0.00,20,5,21,1.21
2012-5-19,85,79,75,79,75,73,94,89,80,0.00,0.00,19,7,27,2.02
2012-5-20,82,79,77,77,76,75,94,89,84,0.00,0.00,25,11,27,0.40
2012-5-21,83,79,75,77,75,73,96,89,80,0.00,0.00,13,5,22,1.13
2012-5-22,85,80,74,78,75,72,96,86,75,0.00,0.00,17,6,27,0.07
2012-5-23,85,80,73,77,75,71,96,84,73,0.00,0.00,15,5,19,0.05
2012-5-24,87,81,72,78,75,70,95,84,75,0.00,0.00,9,3,12,0.00
2012-5-25,87,83,80,79,77,75,86,81,76,0.00,0.00,12,4,12,0.00
2012-5-26,87,82,75,80,77,73,93,85,77,0.00,0.00,22,7,27,0.28
2012-5-27,85,83,81,79,77,74,86,82,74,0.00,0.00,14,5,17,0.00
2012-5-28,87,83,81,78,77,75,85,81,74,0.00,0.00,14,6,16,0.00
2012-5-29,86,83,81,77,76,75,85,80,72,0.00,0.00,19,7,19,0.00
2012-5-30,85,78,71,78,74,69,95,88,79,0.00,0.00,23,4,27,0.43
2012-5-31,84,82,73,79,77,72,97,87,79,0.00,0.00,20,7,22,0.24
2012-6-1,87,82,77,82,79,75,95,89,79,0.00,0.00,10,5,12,0.02
2012-6-2,90,82,75,81,76,74,96,84,65,0.00,0.00,5,1,8,0.00
2012-6-3,85,81,76,81,78,74,96,90,82,0.00,0.00,7,2,13,0.87
2012-6-4,87,83,80,79,78,77,92,85,76,0.00,0.00,12,3,14,0.01
2012-6-5,85,83,81,78,77,76,87,82,76,0.00,0.00,23,13,24,0.02
2012-6-6,85,84,82,79,78,76,86,83,79,0.00,0.00,21,15,24,0.00
2012-6-7,86,84,82,79,78,77,87,83,77,0.00,0.00,18,13,20,0.00
2012-6-8,86,84,83,79,79,77,87,84,78,0.00,0.00,21,14,22,0.00
2012-6-9,85,84,82,79,78,77,87,83,79,0.00,0.00,21,16,21,0.00
2012-6-10,85,84,83,79,78,75,87,82,73,0.00,0.00,22,16,22,0.00
2012-6-11,84,84,82,80,78,77,87,85,79,0.00,0.00,21,15,22,0.00
2012-6-12,84,80,77,79,76,75,95,88,77,0.00,0.00,18,7,19,0.26
2012-6-13,84,80,76,77,74,-100,93,83,77,0.00,40.00,16,-2,17,0.00
2012-6-14,84,83,82,79,77,76,87,82,78,0.00,0.00,16,12,18,0.00
2012-6-15,84,82,78,79,77,74,90,84,77,0.00,0.00,20,11,31,0.17
2012-6-16,83,81,76,77,75,73,92,82,75,0.00,0.00,25,11,31,0.23
2012-6-17,83,82,81,77,75,73,85,79,75,0.00,0.00,19,12,19,0.00
2012-6-18,84,83,82,77,76,74,82,78,74,0.00,0.00,21,13,24,0.00
2012-6-19,84,83,79,78,77,74,88,82,76,0.00,0.00,20,15,23,0.04
2012-6-20,84,82,79,80,78,76,94,85,80,0.00,0.00,15,7,42,0.05
2012-6-21,83,80,76,80,77,74,94,91,87,0.00,0.00,18,11,170,1.52
2012-6-22,81,78,76,78,75,74,96,93,87,0.00,0.00,31,9,37,3.81
2012-6-23,85,82,79,80,78,76,91,87,81,0.00,0.00,25,15,30,0.15
2012-6-24,83,81,74,80,77,73,95,88,81,0.00,0.00,22,12,31,0.43
2012-6-25,84,80,73,79,76,72,95,89,83,0.00,0.00,15,10,18,1.28
2012-6-26,85,81,74,80,77,73,95,88,82,0.00,0.00,16,7,16,0.00
2012-6-27,86,84,82,80,79,78,89,85,80,0.00,0.00,17,10,18,0.00
2012-6-28,86,83,82,79,78,77,88,83,77,0.00,0.00,17,10,18,0.00
2012-6-30,84,79,83,77,68,-100,81,75,78,0.00,0.00,17,-37,17,0.00
2012-7-1,84,84,83,78,77,75,83,80,77,0.00,0.00,19,15,20,0.00
2012-7-2,84,84,82,78,76,75,84,79,75,0.00,0.00,15,12,20,0.00
2012-7-3,84,83,80,77,76,75,85,79,76,0.00,0.00,14,10,15,0.00
2012-7-4,84,82,75,79,77,73,94,84,78,0.00,0.00,17,10,22,0.00
2012-7-5,84,83,80,78,76,75,87,80,77,0.00,0.00,14,9,15,0.00
2012-7-6,85,81,75,78,76,73,93,83,73,0.00,0.00,16,8,17,0.00
2012-7-7,84,82,78,78,76,72,88,81,75,0.00,0.00,27,12,31,0.02
2012-7-8,85,82,74,80,78,72,94,86,76,0.00,0.00,18,11,20,0.02
2012-7-9,85,83,79,80,78,76,93,85,78,0.00,0.00,19,9,20,0.00
2012-7-10,84,82,78,78,77,75,92,84,79,0.00,0.00,15,10,16,0.01
2012-7-11,84,83,82,79,78,76,86,83,80,0.00,0.00,15,10,17,0.10
2012-7-12,84,80,83,78,71,-100,85,79,79,0.00,0.00,13,-26,14,0.10
2012-7-13,84,83,78,78,77,74,89,81,78,0.00,0.00,13,8,15,0.01
2012-7-14,84,80,74,78,75,72,94,86,78,0.00,0.00,13,6,14,0.00
2012-7-15,84,80,74,78,75,72,95,86,78,0.00,0.00,11,5,12,0.00
2012-7-16,84,83,78,79,77,74,89,82,78,0.00,0.00,16,9,21,0.00
2012-7-17,84,84,82,80,78,75,87,84,79,0.00,0.00,15,10,16,0.00
2012-7-18,84,83,74,80,78,70,93,85,74,0.00,0.00,16,10,23,0.21
2012-7-19,86,84,82,80,79,77,87,85,81,0.00,0.00,19,13,23,0.10
2012-7-20,84,82,78,79,77,75,95,86,78,0.00,0.00,19,9,23,0.01
2012-7-21,85,82,76,79,78,73,94,86,81,0.00,0.00,17,9,19,0.01
2012-7-22,85,84,79,80,78,75,88,82,75,0.00,0.00,20,10,21,0.00
2012-7-23,85,84,78,80,78,73,89,83,79,0.00,0.00,18,12,31,0.19
2012-7-24,85,81,74,80,77,73,95,87,79,0.00,0.00,18,8,19,0.19
2012-7-25,85,84,78,79,78,76,94,82,75,0.00,0.00,16,11,17,0.00
2012-7-26,85,84,83,80,78,76,85,81,75,0.00,0.00,18,13,21,0.00
2012-7-27,85,84,83,80,79,73,86,83,73,0.00,0.00,19,12,20,0.00
2012-7-28,85,84,78,79,78,75,90,84,80,0.00,0.00,16,9,16,0.00
2012-7-29,85,82,76,79,77,74,94,84,75,0.00,0.00,16,8,17,0.00
2012-7-30,85,83,76,79,77,73,92,82,76,0.00,0.00,19,10,19,0.00
2012-7-31,85,83,75,79,76,73,91,81,75,0.00,0.00,14,8,16,0.00
2012-8-1,85,81,74,78,76,72,93,83,74,0.00,0.00,13,6,14,0.00
2012-8-2,85,82,75,79,76,73,93,83,75,0.00,0.00,15,7,15,0.03
2012-8-3,85,85,84,79,78,76,83,79,75,0.00,0.00,16,11,16,0.00
2012-8-4,86,83,75,79,77,73,95,83,76,0.00,0.00,16,9,36,0.47
2012-8-5,86,83,78,79,78,75,92,84,78,0.00,0.00,14,7,16,0.47
2012-8-6,86,82,76,80,77,74,95,86,76,0.00,0.00,27,11,30,0.01
2012-8-7,85,81,77,79,77,75,94,86,77,0.00,0.00,36,19,43,0.18
2012-8-8,85,83,75,80,78,74,97,86,80,0.00,0.00,40,23,179,0.02
2012-8-9,85,84,83,80,78,75,87,83,74,0.00,0.00,22,14,24,0.02
2012-8-10,84,84,83,79,78,77,85,82,80,0.00,0.00,17,12,20,0.00
2012-8-11,84,83,79,79,78,75,88,83,78,0.00,0.00,17,12,20,0.01
2012-8-12,84,83,78,80,78,75,93,85,79,0.00,0.00,18,13,25,0.03
2012-8-13,85,84,81,80,79,77,91,85,81,0.00,0.00,17,11,20,0.03
2012-8-14,85,83,78,80,78,76,94,86,79,0.00,0.00,14,8,17,0.00
2012-8-15,84,83,77,79,77,74,93,83,79,0.00,0.00,30,14,32,0.15
2012-8-16,85,84,77,79,78,75,94,83,78,0.00,0.00,19,15,29,0.26
2012-8-17,85,84,80,79,78,75,86,83,77,0.00,0.00,19,11,26,0.26
2012-8-18,85,84,83,79,78,77,85,82,76,0.00,0.00,16,9,16,0.00
2012-8-19,86,84,83,79,78,77,86,81,74,0.00,0.00,16,11,20,0.00
2012-8-20,87,84,83,79,78,77,86,81,74,0.00,0.00,18,11,19,0.00
2012-8-21,86,84,83,79,78,76,86,81,76,0.00,0.00,20,14,22,0.01
2012-8-22,85,84,83,79,77,76,84,80,76,0.00,0.00,19,13,21,0.01
2012-8-23,85,82,77,79,77,75,93,85,79,0.00,0.00,17,10,19,0.00
2012-8-25,87,79,79,77,69,-100,89,78,66,0.00,0.00,18,-28,23,0.00
2012-8-26,89,82,75,78,74,70,92,79,53,0.00,0.00,22,9,27,0.06
2012-8-27,91,80,74,80,75,71,95,84,55,0.00,0.00,17,8,21,0.77
2012-8-28,84,81,75,80,77,73,95,87,81,0.00,0.00,19,7,24,1.33
2012-8-29,86,83,83,79,76,-100,86,81,75,0.00,0.00,20,-1,21,0.19
2012-8-30,86,81,78,80,73,-100,91,81,75,0.00,0.00,26,-10,40,0.18
2012-8-31,85,84,83,80,79,77,87,82,79,0.00,0.00,20,16,23,0.18
2012-9-1,85,84,84,80,78,77,86,82,78,0.00,0.00,18,13,20,0.00
2012-9-2,85,82,76,79,77,74,95,84,77,0.00,0.00,13,8,15,0.00
2012-9-3,84,79,76,78,72,-100,94,83,75,0.00,0.00,11,-17,13,0.00
2012-9-4,85,81,75,78,76,73,95,84,70,0.00,0.00,11,6,12,0.05
2012-9-5,84,83,82,77,76,74,82,80,76,0.00,0.00,11,8,14,0.00
2012-9-11,85,84,84,78,77,76,81,78,75,0.00,0.00,16,12,16,0.00
2012-9-12,85,82,76,78,76,73,93,83,73,0.00,0.00,20,9,21,0.00
2012-9-13,85,81,75,79,77,74,95,87,78,0.00,0.00,17,8,17,0.21
2012-9-14,86,81,75,78,76,73,95,85,73,0.00,0.00,13,4,14,0.21
2012-9-15,85,82,75,78,76,72,93,83,74,0.00,0.00,10,4,12,0.00
2012-9-16,85,83,75,78,76,73,92,81,74,0.00,0.00,9,6,10,0.00
2012-9-17,86,84,80,79,78,75,86,81,75,0.00,0.00,14,8,17,0.31
2012-9-18,86,85,81,80,79,77,88,82,77,0.00,0.00,16,11,19,0.00
2012-9-19,87,83,76,79,77,72,94,82,73,0.00,0.00,19,8,20,0.00
2012-9-20,85,83,76,79,77,72,93,82,74,0.00,0.00,20,10,28,0.47
2012-10-2,85,85,84,78,77,77,79,78,78,0.00,0.00,6,5,8,0.00
2012-10-11,86,83,76,79,78,74,93,83,78,0.00,0.00,22,14,34,0.21
2012-10-12,84,83,79,78,74,71,87,74,64,0.00,0.00,23,14,26,0.21
2012-10-13,84,81,74,73,70,-100,88,71,61,0.00,0.00,24,2,27,0.00
2012-10-14,84,78,72,76,73,70,94,86,67,0.00,0.00,16,6,22,0.12
2012-10-15,86,79,74,77,74,72,96,86,64,0.00,0.00,12,5,17,0.45
2012-10-16,87,79,73,78,74,72,96,86,67,0.00,0.00,15,6,21,0.00
2012-10-17,85,78,72,77,74,71,96,86,68,0.00,0.00,8,5,11,0.00
2012-10-18,83,79,73,77,74,70,93,82,73,0.00,0.00,12,6,13,0.00
2012-10-19,84,79,73,76,74,71,92,84,72,0.00,0.00,13,6,14,0.00
2012-10-20,84,79,72,78,74,71,96,86,70,0.00,0.00,21,7,25,0.02
2012-10-21,84,81,77,78,76,74,92,84,76,0.00,0.00,20,10,24,0.03
2012-10-22,85,80,75,78,74,-100,93,84,76,0.00,0.00,17,-2,21,0.03
2012-10-23,85,80,74,77,75,72,94,83,72,0.00,0.00,21,10,27,0.17
2012-10-24,87,80,73,76,71,-100,92,76,61,0.00,0.00,24,-2,33,0.04
2012-10-25,85,77,70,77,73,68,95,87,71,0.00,0.00,15,7,18,0.09
2012-10-26,87,77,70,75,71,67,96,84,51,0.00,0.00,12,4,17,0.01
2012-10-27,86,76,69,73,69,67,96,80,55,0.00,0.00,14,5,18,0.00
2012-10-28,85,75,68,74,70,66,94,85,64,0.00,0.00,16,5,16,0.00
2012-10-29,80,72,66,68,64,59,94,78,51,0.00,0.00,15,5,21,0.00
2012-10-30,80,70,62,65,61,57,92,75,45,0.00,0.00,14,5,17,0.00
2012-10-31,79,72,61,67,62,57,84,73,61,0.00,0.00,12,6,15,0.00
2012-11-1,79,74,67,67,63,61,82,71,56,0.00,0.00,16,8,18,0.00
2012-11-2,80,76,65,68,64,60,84,67,56,0.00,0.00,19,9,20,0.00
2012-11-3,82,78,67,70,66,63,87,67,57,0.00,0.00,19,11,21,0.00
2012-11-4,82,77,68,74,69,63,87,76,60,0.00,0.00,15,9,19,0.00
2012-11-5,82,76,68,72,70,66,92,81,66,0.00,0.00,15,7,16,0.00
2012-11-6,85,75,67,73,68,64,93,80,53,0.00,0.00,14,5,17,0.00
2012-11-7,82,72,64,71,65,60,95,79,56,0.00,0.00,17,6,19,0.00
2012-11-8,81,70,61,64,60,57,91,72,45,0.00,0.00,13,6,22,0.00
2012-11-9,79,72,62,68,62,57,86,73,64,0.00,0.00,17,9,23,0.00
2012-11-10,80,76,65,70,65,59,84,70,60,0.00,0.00,22,12,23,0.00
2012-11-11,80,80,79,71,68,63,74,68,57,0.00,0.00,22,17,23,0.00
2012-11-12,82,78,71,73,70,66,87,75,64,0.00,0.00,22,13,24,0.04
2012-11-13,81,74,66,72,68,62,91,80,64,0.00,0.00,14,6,17,0.00
2012-11-14,81,75,69,73,69,66,92,82,68,0.00,0.00,19,8,23,0.00
2012-11-15,82,73,66,70,67,63,91,80,64,0.00,0.00,20,8,22,0.00
2012-11-16,80,72,66,72,68,64,94,86,67,0.00,0.00,16,6,23,0.57
2012-11-17,83,71,64,69,63,-100,96,80,51,0.00,0.00,11,-8,16,0.01
2012-11-18,79,72,66,70,67,64,96,86,71,0.00,0.00,18,7,24,0.00
2012-11-19,80,74,67,73,70,66,97,87,73,0.00,0.00,12,6,14,0.01
2012-11-20,77,66,67,72,54,-100,96,83,80,0.00,0.00,9,-73,12,0.04
2012-11-21,80,71,63,67,64,61,91,78,57,0.00,0.00,14,6,19,0.00
2012-11-22,79,69,62,67,60,-100,87,74,53,0.00,0.00,19,-5,22,0.00
2012-11-23,78,71,65,63,58,-100,84,68,47,0.00,0.00,14,-7,17,0.00
2012-11-24,78,71,66,64,61,57,84,71,49,0.00,0.00,9,4,14,0.00
2012-11-25,78,71,63,67,64,59,90,78,56,0.00,0.00,15,6,15,0.00
2012-11-26,79,75,67,70,66,64,92,76,63,0.00,0.00,16,9,17,0.00
2012-11-27,81,74,69,75,70,64,95,87,72,0.00,0.00,17,7,25,0.85
2012-11-28,80,75,70,74,71,67,94,87,75,0.00,0.00,17,6,21,0.85
2012-11-29,80,74,68,71,68,65,94,80,62,0.00,0.00,17,8,20,0.00
2012-11-30,79,74,66,72,69,64,93,84,73,0.00,0.00,13,7,14,0.00
2012-12-1,80,74,66,72,69,65,96,84,71,0.00,0.00,16,7,20,0.00
2012-12-2,80,77,70,73,70,67,91,80,70,0.00,0.00,21,12,23,0.00
2012-12-3,80,78,71,71,69,65,87,72,62,0.00,0.00,21,13,23,0.00
2012-12-4,79,79,78,69,68,66,73,69,65,0.00,0.00,23,16,25,0.00
2012-12-5,80,74,66,69,65,61,86,76,64,0.00,0.00,14,7,16,0.00
2012-12-6,78,72,65,69,65,62,91,79,63,0.00,0.00,9,6,12,0.00
2012-12-7,79,74,64,70,67,62,92,78,68,0.00,0.00,16,8,16,0.00
2012-12-8,79,78,78,70,68,66,75,72,68,0.00,0.00,14,10,17,0.00
2012-12-9,80,78,68,77,71,63,94,79,67,0.00,0.00,17,9,24,0.09
2012-12-10,82,79,79,78,73,-100,92,87,86,0.00,0.00,17,-15,19,0.09
2012-12-11,82,81,78,79,78,75,92,90,85,0.00,0.00,16,9,18,0.02
2012-12-12,86,74,70,79,69,-100,97,90,77,0.00,0.00,15,-21,20,0.11
2012-12-13,81,73,71,74,68,-100,97,89,78,0.00,0.00,12,-20,17,0.00
2012-12-14,76,66,65,66,58,-100,89,81,71,0.00,0.00,9,-29,15,0.00
2012-12-15,80,72,61,72,65,-100,93,80,71,0.00,0.00,20,-4,22,0.00
2012-12-16,80,79,78,72,69,65,78,71,64,0.00,0.00,19,11,20,0.00
2012-12-17,81,78,75,76,70,-100,92,80,77,0.00,0.00,13,-8,14,0.38
2012-12-18,81,79,75,76,73,-100,92,84,82,0.00,0.00,15,-3,17,0.23
2012-12-19,81,80,80,76,73,-100,86,82,79,0.00,0.00,16,1,18,0.00
2012-12-20,81,75,74,75,62,-100,90,73,71,0.00,0.00,18,-53,21,0.00
2012-12-21,68,67,66,62,61,60,84,81,78,0.00,0.00,8,6,11,0.00
2012-12-22,76,69,61,63,60,57,88,75,56,0.00,0.00,22,9,27,0.00
2012-12-23,75,71,62,63,60,57,86,68,56,0.00,0.00,20,10,21,0.00
2012-12-24,77,76,66,67,63,59,78,66,61,0.00,0.00,16,10,18,0.00
2012-12-25,79,78,76,71,67,64,76,69,65,0.00,0.00,20,13,22,0.00